sensor_id;sensor_type;location;lat;lon;timestamp;pressure;altitude;pressure_sealevel;temperature;humidity
25080;BME280;13071;48.868;9.996;2022-07-29T00:00:28;96351.91;;;18.63;93.68
25080;BME280;13071;48.868;9.996;2022-07-29T00:02:55;96348.34;;;18.51;95.19
25080;BME280;13071;48.868;9.996;2022-07-29T00:05:21;96341.25;;;18.36;96.54
25080;BME280;13071;48.868;9.996;2022-07-29T00:07:49;96333.44;;;18.42;95.73
25080;BME280;13071;48.868;9.996;2022-07-29T00:10:16;96335.78;;;18.50;95.87
25080;BME280;13071;48.868;9.996;2022-07-29T00:12:43;96339.75;;;18.57;96.34
25080;BME280;13071;48.868;9.996;2022-07-29T00:15:10;96339.69;;;18.46;97.16
25080;BME280;13071;48.868;9.996;2022-07-29T00:17:36;96326.47;;;18.59;96.42
25080;BME280;13071;48.868;9.996;2022-07-29T00:20:04;96330.31;;;18.50;98.16
25080;BME280;13071;48.868;9.996;2022-07-29T00:22:30;96336.16;;;18.38;99.11
25080;BME280;13071;48.868;9.996;2022-07-29T00:24:58;96326.06;;;18.60;97.13
25080;BME280;13071;48.868;9.996;2022-07-29T00:27:25;96330.38;;;18.58;97.87
25080;BME280;13071;48.868;9.996;2022-07-29T00:29:52;96326.84;;;18.53;98.41
25080;BME280;13071;48.868;9.996;2022-07-29T00:32:18;96327.66;;;18.68;96.95
25080;BME280;13071;48.868;9.996;2022-07-29T00:34:45;96334.69;;;18.66;96.77
25080;BME280;13071;48.868;9.996;2022-07-29T00:37:29;96333.50;;;18.70;96.57
25080;BME280;13071;48.868;9.996;2022-07-29T00:39:56;96335.88;;;18.72;97.06
25080;BME280;13071;48.868;9.996;2022-07-29T00:42:24;96329.22;;;18.73;96.53
25080;BME280;13071;48.868;9.996;2022-07-29T00:44:50;96334.72;;;18.69;96.38
25080;BME280;13071;48.868;9.996;2022-07-29T00:47:17;96330.41;;;18.65;96.10
25080;BME280;13071;48.868;9.996;2022-07-29T00:49:43;96334.28;;;18.60;95.45
25080;BME280;13071;48.868;9.996;2022-07-29T00:52:11;96341.28;;;18.50;95.93
25080;BME280;13071;48.868;9.996;2022-07-29T00:54:39;96337.78;;;18.50;96.20
25080;BME280;13071;48.868;9.996;2022-07-29T00:57:06;96349.50;;;18.40;96.12
25080;BME280;13071;48.868;9.996;2022-07-29T00:59:35;96339.31;;;18.44;94.55
25080;BME280;13071;48.868;9.996;2022-07-29T01:02:02;96342.06;;;18.47;93.99
25080;BME280;13071;48.868;9.996;2022-07-29T01:04:29;96337.81;;;18.61;93.27
25080;BME280;13071;48.868;9.996;2022-07-29T01:06:56;96339.00;;;18.63;94.03
25080;BME280;13071;48.868;9.996;2022-07-29T01:09:23;96335.47;;;18.66;92.39
25080;BME280;13071;48.868;9.996;2022-07-29T01:11:50;96332.75;;;18.73;93.18
25080;BME280;13071;48.868;9.996;2022-07-29T01:14:17;96326.88;;;18.71;94.29
25080;BME280;13071;48.868;9.996;2022-07-29T01:16:50;96320.22;;;18.69;94.41
25080;BME280;13071;48.868;9.996;2022-07-29T01:19:45;96328.41;;;18.58;95.27
25080;BME280;13071;48.868;9.996;2022-07-29T01:22:25;96322.94;;;18.54;96.22
25080;BME280;13071;48.868;9.996;2022-07-29T01:25:05;96317.06;;;18.56;95.34
25080;BME280;13071;48.868;9.996;2022-07-29T01:27:47;96318.22;;;18.55;95.66
25080;BME280;13071;48.868;9.996;2022-07-29T01:30:20;96319.81;;;18.60;94.23
25080;BME280;13071;48.868;9.996;2022-07-29T01:32:50;96319.78;;;18.56;92.79
25080;BME280;13071;48.868;9.996;2022-07-29T01:35:22;96318.63;;;18.53;92.85
25080;BME280;13071;48.868;9.996;2022-07-29T01:37:54;96319.34;;;18.50;94.41
25080;BME280;13071;48.868;9.996;2022-07-29T01:40:25;96316.63;;;18.40;95.16
25080;BME280;13071;48.868;9.996;2022-07-29T01:42:56;96322.06;;;18.36;96.24
25080;BME280;13071;48.868;9.996;2022-07-29T01:45:29;96313.06;;;18.32;96.53
25080;BME280;13071;48.868;9.996;2022-07-29T01:48:03;96310.69;;;18.31;97.10
25080;BME280;13071;48.868;9.996;2022-07-29T01:50:35;96312.69;;;18.34;96.97
25080;BME280;13071;48.868;9.996;2022-07-29T01:53:05;96301.72;;;18.37;96.61
25080;BME280;13071;48.868;9.996;2022-07-29T01:55:36;96293.50;;;18.34;96.60
25080;BME280;13071;48.868;9.996;2022-07-29T01:58:05;96305.25;;;18.34;95.39
25080;BME280;13071;48.868;9.996;2022-07-29T02:00:34;96308.78;;;18.38;94.41
25080;BME280;13071;48.868;9.996;2022-07-29T02:03:04;96309.91;;;18.23;97.15
25080;BME280;13071;48.868;9.996;2022-07-29T02:05:33;96312.22;;;18.10;99.21
25080;BME280;13071;48.868;9.996;2022-07-29T02:08:02;96308.69;;;18.17;98.26
25080;BME280;13071;48.868;9.996;2022-07-29T02:10:32;96303.59;;;18.05;99.30
25080;BME280;13071;48.868;9.996;2022-07-29T02:13:01;96307.88;;;18.02;99.03
25080;BME280;13071;48.868;9.996;2022-07-29T02:15:33;96305.13;;;18.06;98.99
25080;BME280;13071;48.868;9.996;2022-07-29T02:18:03;96312.97;;;18.04;99.05
25080;BME280;13071;48.868;9.996;2022-07-29T02:20:31;96303.16;;;17.99;99.59
25080;BME280;13071;48.868;9.996;2022-07-29T02:22:59;96311.75;;;17.94;99.66
25080;BME280;13071;48.868;9.996;2022-07-29T02:25:27;96317.91;;;17.74;100.00
25080;BME280;13071;48.868;9.996;2022-07-29T02:27:55;96305.00;;;17.74;100.00
25080;BME280;13071;48.868;9.996;2022-07-29T02:30:23;96316.34;;;17.73;100.00
25080;BME280;13071;48.868;9.996;2022-07-29T02:32:53;96321.38;;;17.67;100.00
25080;BME280;13071;48.868;9.996;2022-07-29T02:35:21;96317.38;;;17.50;100.00
25080;BME280;13071;48.868;9.996;2022-07-29T02:37:48;96324.88;;;17.60;100.00
25080;BME280;13071;48.868;9.996;2022-07-29T02:40:48;96325.00;;;17.27;100.00
25080;BME280;13071;48.868;9.996;2022-07-29T02:43:17;96327.03;;;17.34;100.00
25080;BME280;13071;48.868;9.996;2022-07-29T02:45:47;96325.88;;;17.42;100.00
25080;BME280;13071;48.868;9.996;2022-07-29T02:48:22;96327.16;;;17.55;100.00
25080;BME280;13071;48.868;9.996;2022-07-29T02:50:57;96322.19;;;17.67;100.00
25080;BME280;13071;48.868;9.996;2022-07-29T02:53:28;96322.66;;;17.80;99.63
25080;BME280;13071;48.868;9.996;2022-07-29T02:56:00;96320.28;;;17.82;98.37
25080;BME280;13071;48.868;9.996;2022-07-29T02:58:30;96316.41;;;17.83;98.66
25080;BME280;13071;48.868;9.996;2022-07-29T03:00:59;96308.59;;;17.85;98.60
25080;BME280;13071;48.868;9.996;2022-07-29T03:03:33;96311.34;;;17.85;99.25
25080;BME280;13071;48.868;9.996;2022-07-29T03:06:02;96312.03;;;17.72;100.00
25080;BME280;13071;48.868;9.996;2022-07-29T03:08:31;96314.00;;;17.71;99.55
25080;BME280;13071;48.868;9.996;2022-07-29T03:10:58;96313.22;;;17.71;100.00
25080;BME280;13071;48.868;9.996;2022-07-29T03:13:27;96319.06;;;17.73;100.00
25080;BME280;13071;48.868;9.996;2022-07-29T03:15:55;96312.00;;;17.68;99.57
25080;BME280;13071;48.868;9.996;2022-07-29T03:18:23;96319.78;;;17.59;100.00
25080;BME280;13071;48.868;9.996;2022-07-29T03:20:52;96316.59;;;17.57;100.00
25080;BME280;13071;48.868;9.996;2022-07-29T03:23:19;96317.06;;;17.59;100.00
25080;BME280;13071;48.868;9.996;2022-07-29T03:25:48;96315.41;;;17.51;100.00
25080;BME280;13071;48.868;9.996;2022-07-29T03:28:14;96320.41;;;17.42;100.00
25080;BME280;13071;48.868;9.996;2022-07-29T03:30:41;96313.78;;;17.43;100.00
25080;BME280;13071;48.868;9.996;2022-07-29T03:33:07;96313.34;;;17.37;100.00
25080;BME280;13071;48.868;9.996;2022-07-29T03:35:34;96307.09;;;17.33;100.00
25080;BME280;13071;48.868;9.996;2022-07-29T03:38:02;96311.03;;;17.39;100.00
25080;BME280;13071;48.868;9.996;2022-07-29T03:40:32;96309.38;;;17.24;100.00
25080;BME280;13071;48.868;9.996;2022-07-29T03:43:00;96307.00;;;17.19;100.00
25080;BME280;13071;48.868;9.996;2022-07-29T03:45:29;96314.75;;;17.13;100.00
25080;BME280;13071;48.868;9.996;2022-07-29T03:48:00;96313.63;;;17.18;100.00
25080;BME280;13071;48.868;9.996;2022-07-29T03:50:28;96308.59;;;17.23;100.00
25080;BME280;13071;48.868;9.996;2022-07-29T03:52:57;96314.81;;;17.20;100.00
25080;BME280;13071;48.868;9.996;2022-07-29T03:55:25;96317.50;;;17.17;100.00
25080;BME280;13071;48.868;9.996;2022-07-29T03:57:52;96312.84;;;17.17;100.00
25080;BME280;13071;48.868;9.996;2022-07-29T04:00:21;96308.16;;;17.18;100.00
25080;BME280;13071;48.868;9.996;2022-07-29T04:02:49;96309.31;;;17.17;100.00
25080;BME280;13071;48.868;9.996;2022-07-29T04:05:18;96318.38;;;17.24;100.00
25080;BME280;13071;48.868;9.996;2022-07-29T04:07:46;96316.41;;;17.25;100.00
25080;BME280;13071;48.868;9.996;2022-07-29T04:10:13;96318.00;;;17.26;100.00
25080;BME280;13071;48.868;9.996;2022-07-29T04:12:43;96312.56;;;17.33;100.00
25080;BME280;13071;48.868;9.996;2022-07-29T04:15:10;96317.31;;;17.40;100.00
25080;BME280;13071;48.868;9.996;2022-07-29T04:17:37;96315.38;;;17.44;100.00
25080;BME280;13071;48.868;9.996;2022-07-29T04:20:05;96316.13;;;18.09;99.26
25080;BME280;13071;48.868;9.996;2022-07-29T04:22:32;96311.22;;;19.07;92.36
25080;BME280;13071;48.868;9.996;2022-07-29T04:24:58;96317.69;;;20.12;87.82
25080;BME280;13071;48.868;9.996;2022-07-29T04:27:25;96315.06;;;21.26;82.15
25080;BME280;13071;48.868;9.996;2022-07-29T04:29:53;96319.78;;;22.04;77.92
25080;BME280;13071;48.868;9.996;2022-07-29T04:32:19;96319.97;;;22.81;74.31
25080;BME280;13071;48.868;9.996;2022-07-29T04:34:46;96314.06;;;23.06;72.71
25080;BME280;13071;48.868;9.996;2022-07-29T04:37:13;96327.84;;;22.52;73.78
25080;BME280;13071;48.868;9.996;2022-07-29T04:39:39;96318.63;;;21.64;76.44
25080;BME280;13071;48.868;9.996;2022-07-29T04:42:06;96331.00;;;20.94;78.75
25080;BME280;13071;48.868;9.996;2022-07-29T04:44:33;96321.13;;;20.38;80.91
25080;BME280;13071;48.868;9.996;2022-07-29T04:47:01;96331.88;;;19.93;83.75
25080;BME280;13071;48.868;9.996;2022-07-29T04:49:27;96334.72;;;19.68;85.29
25080;BME280;13071;48.868;9.996;2022-07-29T04:51:54;96329.25;;;19.58;86.81
25080;BME280;13071;48.868;9.996;2022-07-29T04:54:20;96330.22;;;20.20;84.54
25080;BME280;13071;48.868;9.996;2022-07-29T04:56:47;96331.44;;;21.40;80.52
25080;BME280;13071;48.868;9.996;2022-07-29T04:59:13;96332.56;;;23.09;73.64
25080;BME280;13071;48.868;9.996;2022-07-29T05:01:40;96332.41;;;24.29;70.04
25080;BME280;13071;48.868;9.996;2022-07-29T05:04:08;96332.66;;;23.95;69.20
25080;BME280;13071;48.868;9.996;2022-07-29T05:06:34;96332.84;;;23.84;69.21
25080;BME280;13071;48.868;9.996;2022-07-29T05:09:01;96335.56;;;23.64;70.38
25080;BME280;13071;48.868;9.996;2022-07-29T05:11:28;96340.50;;;23.53;71.82
25080;BME280;13071;48.868;9.996;2022-07-29T05:13:54;96340.88;;;23.55;70.34
25080;BME280;13071;48.868;9.996;2022-07-29T05:16:21;96347.28;;;23.72;70.55
25080;BME280;13071;48.868;9.996;2022-07-29T05:18:47;96345.56;;;24.01;68.63
25080;BME280;13071;48.868;9.996;2022-07-29T05:21:15;96344.47;;;23.52;70.62
25080;BME280;13071;48.868;9.996;2022-07-29T05:23:42;96353.63;;;22.96;72.85
25080;BME280;13071;48.868;9.996;2022-07-29T05:26:08;96357.09;;;22.43;74.81
25080;BME280;13071;48.868;9.996;2022-07-29T05:28:35;96353.19;;;22.10;76.13
25080;BME280;13071;48.868;9.996;2022-07-29T05:31:03;96348.03;;;21.74;76.75
25080;BME280;13071;48.868;9.996;2022-07-29T05:33:29;96346.38;;;21.80;77.38
25080;BME280;13071;48.868;9.996;2022-07-29T05:35:57;96348.31;;;21.83;78.96
25080;BME280;13071;48.868;9.996;2022-07-29T05:38:25;96351.03;;;22.24;77.59
25080;BME280;13071;48.868;9.996;2022-07-29T05:40:51;96357.53;;;22.07;78.01
25080;BME280;13071;48.868;9.996;2022-07-29T05:43:18;96361.13;;;22.01;78.09
25080;BME280;13071;48.868;9.996;2022-07-29T05:45:46;96366.59;;;22.08;77.25
25080;BME280;13071;48.868;9.996;2022-07-29T05:48:12;96361.34;;;21.79;78.25
25080;BME280;13071;48.868;9.996;2022-07-29T05:50:39;96355.16;;;21.68;78.15
25080;BME280;13071;48.868;9.996;2022-07-29T05:53:05;96356.56;;;21.42;79.02
25080;BME280;13071;48.868;9.996;2022-07-29T05:55:33;96358.53;;;21.42;79.24
25080;BME280;13071;48.868;9.996;2022-07-29T05:58:00;96356.31;;;21.30;81.71
25080;BME280;13071;48.868;9.996;2022-07-29T06:00:27;96361.38;;;21.35;81.46
25080;BME280;13071;48.868;9.996;2022-07-29T06:02:53;96349.88;;;21.43;80.95
25080;BME280;13071;48.868;9.996;2022-07-29T06:05:20;96353.91;;;21.35;80.92
25080;BME280;13071;48.868;9.996;2022-07-29T06:07:46;96362.59;;;21.27;81.81
25080;BME280;13071;48.868;9.996;2022-07-29T06:10:13;96366.13;;;21.27;81.58
25080;BME280;13071;48.868;9.996;2022-07-29T06:12:41;96366.56;;;21.26;81.01
25080;BME280;13071;48.868;9.996;2022-07-29T06:15:09;96371.72;;;21.17;81.41
25080;BME280;13071;48.868;9.996;2022-07-29T06:17:35;96369.00;;;21.09;82.76
25080;BME280;13071;48.868;9.996;2022-07-29T06:20:02;96374.94;;;21.04;82.05
25080;BME280;13071;48.868;9.996;2022-07-29T06:22:29;96374.19;;;20.97;82.22
25080;BME280;13071;48.868;9.996;2022-07-29T06:24:56;96371.00;;;21.02;83.94
25080;BME280;13071;48.868;9.996;2022-07-29T06:27:23;96383.25;;;20.94;84.92
25080;BME280;13071;48.868;9.996;2022-07-29T06:29:51;96378.13;;;20.99;84.18
25080;BME280;13071;48.868;9.996;2022-07-29T06:32:17;96374.00;;;21.29;82.99
25080;BME280;13071;48.868;9.996;2022-07-29T06:34:44;96377.41;;;21.43;82.41
25080;BME280;13071;48.868;9.996;2022-07-29T06:37:11;96377.44;;;21.84;81.29
25080;BME280;13071;48.868;9.996;2022-07-29T06:39:37;96376.41;;;22.09;80.81
25080;BME280;13071;48.868;9.996;2022-07-29T06:42:04;96370.53;;;22.07;77.59
25080;BME280;13071;48.868;9.996;2022-07-29T06:44:31;96382.09;;;22.28;77.56
25080;BME280;13071;48.868;9.996;2022-07-29T06:47:00;96380.13;;;22.29;77.69
25080;BME280;13071;48.868;9.996;2022-07-29T06:49:27;96392.63;;;22.37;77.81
25080;BME280;13071;48.868;9.996;2022-07-29T06:51:53;96386.69;;;22.38;79.02
25080;BME280;13071;48.868;9.996;2022-07-29T06:54:20;96389.34;;;22.46;77.78
25080;BME280;13071;48.868;9.996;2022-07-29T06:56:47;96382.59;;;21.79;78.16
25080;BME280;13071;48.868;9.996;2022-07-29T06:59:13;96382.94;;;21.84;78.72
25080;BME280;13071;48.868;9.996;2022-07-29T07:01:41;96379.31;;;21.91;78.32
25080;BME280;13071;48.868;9.996;2022-07-29T07:04:10;96388.44;;;21.84;78.81
25080;BME280;13071;48.868;9.996;2022-07-29T07:06:37;96391.56;;;21.90;78.34
25080;BME280;13071;48.868;9.996;2022-07-29T07:09:04;96395.38;;;22.03;78.25
25080;BME280;13071;48.868;9.996;2022-07-29T07:11:30;96385.81;;;22.15;77.19
25080;BME280;13071;48.868;9.996;2022-07-29T07:13:57;96393.94;;;22.25;76.20
25080;BME280;13071;48.868;9.996;2022-07-29T07:16:23;96394.22;;;22.65;77.27
25080;BME280;13071;48.868;9.996;2022-07-29T07:18:50;96393.00;;;23.00;76.12
25080;BME280;13071;48.868;9.996;2022-07-29T07:21:18;96394.56;;;23.28;75.08
25080;BME280;13071;48.868;9.996;2022-07-29T07:23:45;96396.69;;;23.43;74.60
25080;BME280;13071;48.868;9.996;2022-07-29T07:26:11;96390.22;;;23.77;73.16
25080;BME280;13071;48.868;9.996;2022-07-29T07:28:38;96400.56;;;23.73;71.84
25080;BME280;13071;48.868;9.996;2022-07-29T07:31:05;96392.19;;;23.99;71.68
25080;BME280;13071;48.868;9.996;2022-07-29T07:33:31;96387.53;;;24.16;72.84
25080;BME280;13071;48.868;9.996;2022-07-29T07:35:58;96381.63;;;23.94;72.72
25080;BME280;13071;48.868;9.996;2022-07-29T07:38:26;96376.78;;;24.22;70.81
25080;BME280;13071;48.868;9.996;2022-07-29T07:40:52;96384.44;;;24.53;70.31
25080;BME280;13071;48.868;9.996;2022-07-29T07:43:19;96380.84;;;24.57;69.87
25080;BME280;13071;48.868;9.996;2022-07-29T07:45:47;96384.38;;;23.94;71.30
25080;BME280;13071;48.868;9.996;2022-07-29T07:48:13;96376.75;;;24.02;72.01
25080;BME280;13071;48.868;9.996;2022-07-29T07:50:40;96371.97;;;24.26;69.38
25080;BME280;13071;48.868;9.996;2022-07-29T07:53:06;96371.16;;;24.65;69.36
25080;BME280;13071;48.868;9.996;2022-07-29T07:55:39;96367.72;;;24.97;68.07
25080;BME280;13071;48.868;9.996;2022-07-29T07:58:06;96373.38;;;25.09;67.02
25080;BME280;13071;48.868;9.996;2022-07-29T08:00:33;96374.47;;;25.12;66.80
25080;BME280;13071;48.868;9.996;2022-07-29T08:02:59;96379.22;;;24.95;68.17
25080;BME280;13071;48.868;9.996;2022-07-29T08:05:27;96379.41;;;25.04;66.68
25080;BME280;13071;48.868;9.996;2022-07-29T08:07:53;96376.78;;;24.97;67.30
25080;BME280;13071;48.868;9.996;2022-07-29T08:10:20;96379.44;;;24.84;68.53
25080;BME280;13071;48.868;9.996;2022-07-29T08:13:03;96377.53;;;25.01;67.71
25080;BME280;13071;48.868;9.996;2022-07-29T08:15:30;96383.84;;;25.18;66.31
25080;BME280;13071;48.868;9.996;2022-07-29T08:17:56;96380.28;;;25.17;64.42
25080;BME280;13071;48.868;9.996;2022-07-29T08:20:23;96380.31;;;25.66;63.43
25080;BME280;13071;48.868;9.996;2022-07-29T08:22:49;96377.91;;;25.68;63.96
25080;BME280;13071;48.868;9.996;2022-07-29T08:25:16;96378.59;;;25.40;62.93
25080;BME280;13071;48.868;9.996;2022-07-29T08:27:45;96372.34;;;25.52;64.85
25080;BME280;13071;48.868;9.996;2022-07-29T08:30:14;96376.38;;;24.99;64.93
25080;BME280;13071;48.868;9.996;2022-07-29T08:32:41;96379.72;;;25.26;64.35
25080;BME280;13071;48.868;9.996;2022-07-29T08:35:08;96385.81;;;25.17;64.02
25080;BME280;13071;48.868;9.996;2022-07-29T08:37:35;96386.28;;;25.32;63.52
25080;BME280;13071;48.868;9.996;2022-07-29T08:40:02;96393.09;;;25.27;61.50
25080;BME280;13071;48.868;9.996;2022-07-29T08:42:29;96391.81;;;25.32;62.37
25080;BME280;13071;48.868;9.996;2022-07-29T08:44:57;96390.09;;;25.54;62.58
25080;BME280;13071;48.868;9.996;2022-07-29T08:47:25;96394.41;;;25.23;65.12
25080;BME280;13071;48.868;9.996;2022-07-29T08:49:54;96386.53;;;25.86;62.87
25080;BME280;13071;48.868;9.996;2022-07-29T08:52:21;96380.13;;;25.89;60.22
25080;BME280;13071;48.868;9.996;2022-07-29T08:54:48;96382.00;;;26.08;60.60
25080;BME280;13071;48.868;9.996;2022-07-29T08:57:15;96380.81;;;26.38;59.80
25080;BME280;13071;48.868;9.996;2022-07-29T08:59:42;96382.91;;;26.34;58.51
25080;BME280;13071;48.868;9.996;2022-07-29T09:02:18;96381.06;;;26.44;59.34
25080;BME280;13071;48.868;9.996;2022-07-29T09:04:47;96376.50;;;26.50;58.83
25080;BME280;13071;48.868;9.996;2022-07-29T09:07:14;96373.19;;;26.55;58.00
25080;BME280;13071;48.868;9.996;2022-07-29T09:09:42;96378.00;;;26.67;60.31
25080;BME280;13071;48.868;9.996;2022-07-29T09:12:09;96376.47;;;26.37;59.25
25080;BME280;13071;48.868;9.996;2022-07-29T09:14:36;96385.34;;;26.16;57.94
25080;BME280;13071;48.868;9.996;2022-07-29T09:17:03;96380.25;;;26.14;58.48
25080;BME280;13071;48.868;9.996;2022-07-29T09:19:35;96375.53;;;25.99;59.75
25080;BME280;13071;48.868;9.996;2022-07-29T09:22:04;96374.03;;;25.65;61.41
25080;BME280;13071;48.868;9.996;2022-07-29T09:24:39;96373.72;;;25.44;61.63
25080;BME280;13071;48.868;9.996;2022-07-29T09:27:20;96370.00;;;25.83;61.10
25080;BME280;13071;48.868;9.996;2022-07-29T09:29:55;96375.13;;;25.84;60.18
25080;BME280;13071;48.868;9.996;2022-07-29T09:32:23;96378.34;;;26.11;60.77
25080;BME280;13071;48.868;9.996;2022-07-29T09:34:50;96373.59;;;25.96;62.07
25080;BME280;13071;48.868;9.996;2022-07-29T09:37:27;96374.25;;;26.45;61.50
25080;BME280;13071;48.868;9.996;2022-07-29T09:39:54;96366.94;;;26.38;59.97
25080;BME280;13071;48.868;9.996;2022-07-29T09:42:28;96367.72;;;26.39;61.15
25080;BME280;13071;48.868;9.996;2022-07-29T09:44:55;96367.91;;;26.73;58.49
25080;BME280;13071;48.868;9.996;2022-07-29T09:47:21;96368.09;;;26.66;59.03
25080;BME280;13071;48.868;9.996;2022-07-29T09:49:53;96371.44;;;26.61;59.21
25080;BME280;13071;48.868;9.996;2022-07-29T09:52:20;96379.09;;;26.57;58.73
25080;BME280;13071;48.868;9.996;2022-07-29T09:54:49;96384.56;;;26.15;61.47
25080;BME280;13071;48.868;9.996;2022-07-29T09:57:25;96378.00;;;26.67;59.42
25080;BME280;13071;48.868;9.996;2022-07-29T10:00:03;96379.25;;;26.79;58.69
25080;BME280;13071;48.868;9.996;2022-07-29T10:02:33;96381.38;;;26.17;60.31
25080;BME280;13071;48.868;9.996;2022-07-29T10:05:01;96379.47;;;25.85;65.24
25080;BME280;13071;48.868;9.996;2022-07-29T10:07:43;96375.34;;;26.35;61.87
25080;BME280;13071;48.868;9.996;2022-07-29T10:10:18;96383.06;;;26.56;61.16
25080;BME280;13071;48.868;9.996;2022-07-29T10:12:50;96376.53;;;26.62;60.10
25080;BME280;13071;48.868;9.996;2022-07-29T10:15:17;96377.38;;;26.47;60.76
25080;BME280;13071;48.868;9.996;2022-07-29T10:17:44;96377.88;;;26.58;59.38
25080;BME280;13071;48.868;9.996;2022-07-29T10:20:11;96378.47;;;26.78;60.31
25080;BME280;13071;48.868;9.996;2022-07-29T10:22:39;96371.25;;;26.81;59.41
25080;BME280;13071;48.868;9.996;2022-07-29T10:25:06;96364.66;;;26.62;60.63
25080;BME280;13071;48.868;9.996;2022-07-29T10:27:34;96368.84;;;27.08;60.43
25080;BME280;13071;48.868;9.996;2022-07-29T10:30:01;96368.97;;;26.21;62.21
25080;BME280;13071;48.868;9.996;2022-07-29T10:32:48;96363.56;;;26.85;60.10
25080;BME280;13071;48.868;9.996;2022-07-29T10:35:33;96366.63;;;27.16;60.29
25080;BME280;13071;48.868;9.996;2022-07-29T10:38:30;96361.41;;;27.18;59.28
25080;BME280;13071;48.868;9.996;2022-07-29T10:41:27;96355.75;;;27.09;60.21
25080;BME280;13071;48.868;9.996;2022-07-29T10:44:03;96344.03;;;25.44;61.81
25080;BME280;13071;48.868;9.996;2022-07-29T10:46:34;96344.81;;;26.22;60.08
25080;BME280;13071;48.868;9.996;2022-07-29T10:49:06;96351.69;;;26.59;60.31
25080;BME280;13071;48.868;9.996;2022-07-29T10:52:00;96335.94;;;26.81;57.28
25080;BME280;13071;48.868;9.996;2022-07-29T10:54:44;96335.06;;;26.30;59.97
25080;BME280;13071;48.868;9.996;2022-07-29T10:57:14;96335.59;;;26.25;60.60
25080;BME280;13071;48.868;9.996;2022-07-29T10:59:43;96334.91;;;26.62;62.51
25080;BME280;13071;48.868;9.996;2022-07-29T11:02:40;96331.50;;;27.34;58.34
25080;BME280;13071;48.868;9.996;2022-07-29T11:05:10;96325.47;;;27.48;59.26
25080;BME280;13071;48.868;9.996;2022-07-29T11:07:38;96320.72;;;27.36;58.48
25080;BME280;13071;48.868;9.996;2022-07-29T11:10:22;96329.84;;;26.86;61.03
25080;BME280;13071;48.868;9.996;2022-07-29T11:12:49;96326.34;;;26.57;60.96
25080;BME280;13071;48.868;9.996;2022-07-29T11:15:20;96328.78;;;26.42;59.85
25080;BME280;13071;48.868;9.996;2022-07-29T11:18:08;96330.63;;;26.33;60.41
25080;BME280;13071;48.868;9.996;2022-07-29T11:20:37;96333.53;;;26.96;59.67
25080;BME280;13071;48.868;9.996;2022-07-29T11:23:21;96334.25;;;26.71;58.48
25080;BME280;13071;48.868;9.996;2022-07-29T11:26:15;96340.22;;;26.70;57.71
25080;BME280;13071;48.868;9.996;2022-07-29T11:28:59;96334.59;;;26.86;56.74
25080;BME280;13071;48.868;9.996;2022-07-29T11:31:37;96328.84;;;27.05;56.51
25080;BME280;13071;48.868;9.996;2022-07-29T11:34:17;96338.16;;;27.24;56.81
25080;BME280;13071;48.868;9.996;2022-07-29T11:37:16;96332.06;;;26.79;59.38
25080;BME280;13071;48.868;9.996;2022-07-29T11:39:44;96331.50;;;27.22;57.59
25080;BME280;13071;48.868;9.996;2022-07-29T11:42:37;96336.50;;;27.27;57.70
25080;BME280;13071;48.868;9.996;2022-07-29T11:45:06;96347.19;;;26.90;59.37
25080;BME280;13071;48.868;9.996;2022-07-29T11:47:36;96348.06;;;27.51;58.27
25080;BME280;13071;48.868;9.996;2022-07-29T11:50:06;96340.81;;;27.66;57.41
25080;BME280;13071;48.868;9.996;2022-07-29T11:52:33;96335.25;;;27.66;55.54
25080;BME280;13071;48.868;9.996;2022-07-29T11:55:04;96334.91;;;27.64;57.38
25080;BME280;13071;48.868;9.996;2022-07-29T11:57:31;96332.03;;;27.42;57.36
25080;BME280;13071;48.868;9.996;2022-07-29T11:59:58;96347.06;;;27.32;57.45
25080;BME280;13071;48.868;9.996;2022-07-29T12:02:39;96340.84;;;27.28;57.12
25080;BME280;13071;48.868;9.996;2022-07-29T12:05:07;96323.41;;;27.02;57.04
25080;BME280;13071;48.868;9.996;2022-07-29T12:07:35;96327.38;;;26.63;58.81
25080;BME280;13071;48.868;9.996;2022-07-29T12:10:03;96320.91;;;26.66;59.43
25080;BME280;13071;48.868;9.996;2022-07-29T12:12:30;96336.38;;;26.67;60.76
25080;BME280;13071;48.868;9.996;2022-07-29T12:14:57;96338.34;;;26.54;59.16
25080;BME280;13071;48.868;9.996;2022-07-29T12:17:27;96337.88;;;26.43;59.46
25080;BME280;13071;48.868;9.996;2022-07-29T12:19:57;96348.34;;;26.23;60.03
25080;BME280;13071;48.868;9.996;2022-07-29T12:22:25;96343.19;;;26.08;60.87
25080;BME280;13071;48.868;9.996;2022-07-29T12:24:53;96352.53;;;26.14;60.60
25080;BME280;13071;48.868;9.996;2022-07-29T12:27:20;96344.28;;;26.11;62.64
25080;BME280;13071;48.868;9.996;2022-07-29T12:29:55;96352.03;;;26.03;61.84
25080;BME280;13071;48.868;9.996;2022-07-29T12:32:22;96354.16;;;26.12;60.60
25080;BME280;13071;48.868;9.996;2022-07-29T12:34:49;96347.00;;;25.98;60.53
25080;BME280;13071;48.868;9.996;2022-07-29T12:37:17;96344.13;;;25.73;61.77
25080;BME280;13071;48.868;9.996;2022-07-29T12:39:43;96338.69;;;25.69;62.22
25080;BME280;13071;48.868;9.996;2022-07-29T12:42:12;96341.25;;;25.76;62.32
25080;BME280;13071;48.868;9.996;2022-07-29T12:44:48;96345.84;;;25.83;63.40
25080;BME280;13071;48.868;9.996;2022-07-29T12:47:15;96345.22;;;25.92;63.37
25080;BME280;13071;48.868;9.996;2022-07-29T12:49:43;96338.28;;;26.00;62.11
25080;BME280;13071;48.868;9.996;2022-07-29T12:52:29;96343.47;;;25.98;62.42
25080;BME280;13071;48.868;9.996;2022-07-29T12:54:56;96333.88;;;26.15;63.45
25080;BME280;13071;48.868;9.996;2022-07-29T12:57:24;96335.78;;;26.18;64.95
25080;BME280;13071;48.868;9.996;2022-07-29T13:00:05;96339.84;;;26.30;66.70
25080;BME280;13071;48.868;9.996;2022-07-29T13:02:34;96331.84;;;26.32;65.46
25080;BME280;13071;48.868;9.996;2022-07-29T13:05:01;96343.06;;;26.28;63.66
25080;BME280;13071;48.868;9.996;2022-07-29T13:07:32;96342.88;;;26.48;63.94
25080;BME280;13071;48.868;9.996;2022-07-29T13:10:11;96329.03;;;26.19;64.47
25080;BME280;13071;48.868;9.996;2022-07-29T13:12:39;96340.47;;;25.76;66.30